createdAt,value
2023-02-13T00:03:21.463Z,8.90
2023-02-13T00:08:21.504Z,9.48
2023-02-13T00:13:21.182Z,9.15
2023-02-13T00:18:21.350Z,8.96
2023-02-13T00:23:21.090Z,8.75
2023-02-13T00:28:24.289Z,9.06
2023-02-13T00:33:21.050Z,8.58
2023-02-13T00:38:20.928Z,9.46
2023-02-13T00:43:21.245Z,9.49
2023-02-13T00:48:20.829Z,9.35
2023-02-13T00:54:39.574Z,9.30
2023-02-13T00:59:39.563Z,8.86
2023-02-13T01:04:39.506Z,8.97
2023-02-13T01:09:39.426Z,9.27
2023-02-13T01:14:39.521Z,9.43
2023-02-13T01:19:39.192Z,9.42
2023-02-13T01:24:39.174Z,9.49
2023-02-13T01:29:39.213Z,9.13
2023-02-13T01:34:39.164Z,9.46
2023-02-13T01:39:39.019Z,9.52
2023-02-13T01:44:41.983Z,9.09
2023-02-13T01:49:38.894Z,9.02
2023-02-13T01:54:38.863Z,9.13
2023-02-13T01:59:38.811Z,9.34
2023-02-13T02:06:07.932Z,9.09
2023-02-13T02:11:07.706Z,9.13
2023-02-13T02:16:07.754Z,9.01
2023-02-13T02:21:07.585Z,9.05
2023-02-13T02:29:14.214Z,8.65
2023-02-13T02:34:13.725Z,8.71
2023-02-13T02:39:13.872Z,9.21
2023-02-13T02:44:13.558Z,8.78
2023-02-13T02:49:13.503Z,8.73
2023-02-13T02:54:13.414Z,8.68
2023-02-13T02:59:13.449Z,8.73
2023-02-13T03:04:13.428Z,8.48
2023-02-13T03:09:13.641Z,8.48
2023-02-13T03:16:16.894Z,8.54
2023-02-13T03:21:16.805Z,8.66
2023-02-13T03:26:16.541Z,8.55
2023-02-13T03:31:16.600Z,8.79
2023-02-13T03:36:16.522Z,8.93
2023-02-13T03:41:16.683Z,8.55
2023-02-13T03:47:55.897Z,9.04
2023-02-13T04:00:06.480Z,9.15
2023-02-13T04:05:06.469Z,9.04
2023-02-13T04:10:06.299Z,8.83
2023-02-13T04:15:06.134Z,8.94
2023-02-13T04:28:29.517Z,8.86
2023-02-13T04:33:29.362Z,8.79
2023-02-13T04:38:29.391Z,8.65
2023-02-13T04:43:29.109Z,8.40
2023-02-13T04:48:29.177Z,8.44
2023-02-13T04:53:28.879Z,7.97
2023-02-13T04:58:28.947Z,7.45
2023-02-13T05:03:28.879Z,7.41
2023-02-13T05:08:28.936Z,7.41
2023-02-13T05:15:41.093Z,8.14
2023-02-13T05:20:40.823Z,8.25
2023-02-13T05:25:40.805Z,7.34
2023-02-13T05:30:40.878Z,7.26
2023-02-13T05:35:40.809Z,7.53
2023-02-13T05:40:41.106Z,7.47
2023-02-13T05:45:40.783Z,7.01
2023-02-13T05:50:40.566Z,7.63
2023-02-13T05:55:40.382Z,7.77
2023-02-13T06:00:40.448Z,7.97
2023-02-13T06:05:45.358Z,8.03
2023-02-13T06:10:40.261Z,7.79
2023-02-13T06:15:40.123Z,7.85
2023-02-13T06:20:40.112Z,7.42
2023-02-13T06:25:40.154Z,7.23
2023-02-13T06:30:40.078Z,7.45
2023-02-13T06:35:40.216Z,7.75
2023-02-13T06:40:39.838Z,7.20
2023-02-13T06:47:08.454Z,7.22
2023-02-13T06:52:08.115Z,7.52
2023-02-13T06:57:08.147Z,7.52
2023-02-13T07:02:08.314Z,7.27
2023-02-13T07:07:07.984Z,7.60
2023-02-13T07:12:08.002Z,7.72
2023-02-13T07:17:07.828Z,7.84
2023-02-13T07:22:07.757Z,7.93
2023-02-13T07:27:07.941Z,7.89
2023-02-13T07:32:07.651Z,8.07
2023-02-13T07:37:10.559Z,8.15
2023-02-13T07:42:07.487Z,7.67
2023-02-13T07:47:07.604Z,8.12
2023-02-13T07:52:07.368Z,8.28
2023-02-13T07:57:15.746Z,8.47
2023-02-13T08:02:17.117Z,8.78
2023-02-13T08:07:14.729Z,8.75
2023-02-13T08:12:07.299Z,8.28
2023-02-13T08:17:07.067Z,8.07
2023-02-13T08:22:06.948Z,8.15
2023-02-13T08:27:06.989Z,8.17
2023-02-13T08:32:06.910Z,8.33
2023-02-13T08:37:10.470Z,8.62
2023-02-13T08:42:06.823Z,8.53
2023-02-13T08:47:14.795Z,9.27
2023-02-13T08:52:14.147Z,9.38
2023-02-13T08:57:06.561Z,9.06
2023-02-13T09:02:06.449Z,9.06
2023-02-13T09:07:06.457Z,9.25
2023-02-13T09:12:06.462Z,9.32
2023-02-13T09:17:06.371Z,9.43
2023-02-13T09:22:06.453Z,9.78
2023-02-13T09:27:06.240Z,9.53
2023-02-13T09:32:06.339Z,9.78
2023-02-13T09:37:09.211Z,9.82
2023-02-13T09:42:05.919Z,9.28
2023-02-13T09:47:06.998Z,9.70
2023-02-13T09:52:05.825Z,9.83
2023-02-13T09:57:05.936Z,10.01
2023-02-13T10:02:05.834Z,10.00
2023-02-13T10:07:05.741Z,10.15
2023-02-13T10:12:05.590Z,10.25
2023-02-13T10:17:05.525Z,10.32
2023-02-13T10:22:05.409Z,10.34
2023-02-13T10:27:05.385Z,10.52
2023-02-13T10:32:05.365Z,10.40
2023-02-13T10:37:09.686Z,10.32
2023-02-13T10:42:05.265Z,10.12
2023-02-13T10:47:05.128Z,10.65
2023-02-13T10:52:05.049Z,10.76
2023-02-13T10:57:05.141Z,10.71
2023-02-13T11:02:05.184Z,10.96
2023-02-13T11:07:05.023Z,10.99
2023-02-13T11:12:04.884Z,10.96
2023-02-13T11:17:04.808Z,11.11
2023-02-13T11:22:04.720Z,11.19
2023-02-13T11:27:04.611Z,10.84
2023-02-13T11:32:04.734Z,11.24
2023-02-13T11:37:07.903Z,11.46
2023-02-13T11:42:04.531Z,11.21
2023-02-13T11:47:04.636Z,11.75
2023-02-13T11:52:04.507Z,11.74
2023-02-13T11:57:05.685Z,11.89
2023-02-13T12:02:04.142Z,11.83
2023-02-13T12:07:04.686Z,11.89
2023-02-13T12:12:06.468Z,11.89
2023-02-13T12:17:04.066Z,12.21
2023-02-13T12:22:04.029Z,12.30
2023-02-13T12:27:03.897Z,12.12
2023-02-13T12:32:03.866Z,11.89
2023-02-13T12:37:06.939Z,12.05
2023-02-13T12:42:03.698Z,11.82
2023-02-13T12:47:03.597Z,12.31
2023-02-13T12:52:03.537Z,12.27
2023-02-13T12:57:03.543Z,12.30
2023-02-13T13:02:03.914Z,12.16
2023-02-13T13:07:03.478Z,12.51
2023-02-13T13:13:34.257Z,12.78
2023-02-13T13:18:33.890Z,12.64
2023-02-13T13:23:33.927Z,12.62
2023-02-13T13:28:34.026Z,12.87
2023-02-13T13:33:33.834Z,12.88
2023-02-13T13:38:33.705Z,12.82
2023-02-13T13:46:34.954Z,12.63
2023-02-13T13:51:35.075Z,12.62
2023-02-13T13:56:34.934Z,12.78
2023-02-13T14:01:35.067Z,12.49
2023-02-13T14:06:34.715Z,12.33
2023-02-13T14:11:34.645Z,12.19
2023-02-13T14:16:35.791Z,11.96
2023-02-13T14:21:34.476Z,12.41
2023-02-13T14:26:34.539Z,12.97
2023-02-13T14:31:34.477Z,12.74
2023-02-13T14:36:37.331Z,12.08
2023-02-13T14:41:34.274Z,11.47
2023-02-13T14:46:34.317Z,11.07
2023-02-13T14:51:34.162Z,11.06
2023-02-13T14:56:34.245Z,10.91
2023-02-13T15:01:34.168Z,10.76
2023-02-13T15:08:24.552Z,10.89
2023-02-13T15:13:24.431Z,10.46
2023-02-13T15:18:25.211Z,10.40
2023-02-13T15:23:24.262Z,10.56
2023-02-13T15:28:24.027Z,10.78
2023-02-13T15:34:42.598Z,10.19
2023-02-13T15:39:42.356Z,10.03
2023-02-13T15:44:42.404Z,9.89
2023-02-13T15:49:42.244Z,10.12
2023-02-13T15:54:42.337Z,9.99
2023-02-13T15:59:42.550Z,9.81
2023-02-13T16:04:42.454Z,9.97
2023-02-13T16:09:42.002Z,9.79
2023-02-13T16:14:42.886Z,9.71
2023-02-13T16:19:41.855Z,9.34
2023-02-13T16:24:45.904Z,8.73
2023-02-13T16:33:29.104Z,7.45
2023-02-13T16:46:16.636Z,6.28
2023-02-13T16:54:47.010Z,6.06
2023-02-13T17:12:20.582Z,6.22
2023-02-13T17:17:20.186Z,5.68
2023-02-13T17:22:19.864Z,5.13
2023-02-13T17:27:22.429Z,5.01
2023-02-13T17:36:48.011Z,5.05
2023-02-13T17:41:47.659Z,5.30
2023-02-13T17:46:47.708Z,5.22
2023-02-13T18:19:33.989Z,4.12
2023-02-13T20:54:04.792Z,4.06
2023-02-13T20:59:04.652Z,4.88
2023-02-13T21:04:04.784Z,5.13
2023-02-13T21:09:04.618Z,5.19
2023-02-13T21:14:04.549Z,5.31
2023-02-13T21:19:04.362Z,4.95
2023-02-13T21:24:05.806Z,4.91
2023-02-13T21:29:04.216Z,4.96
2023-02-13T21:34:04.629Z,5.35
2023-02-13T21:39:04.244Z,4.76
2023-02-13T21:44:08.192Z,5.17
2023-02-13T21:49:04.031Z,4.92
2023-02-13T21:54:17.129Z,5.53
2023-02-13T21:59:03.923Z,5.31
2023-02-13T22:04:03.815Z,5.40
2023-02-13T22:09:03.928Z,5.32
2023-02-13T22:14:03.818Z,5.28
2023-02-13T22:19:03.838Z,5.49
2023-02-13T22:24:03.629Z,5.30
2023-02-13T22:29:03.482Z,5.46
2023-02-13T22:34:05.029Z,5.41
2023-02-13T22:39:03.547Z,5.38
2023-02-13T22:44:06.447Z,5.32
2023-02-13T22:49:03.281Z,4.96
2023-02-13T22:54:03.154Z,5.31
2023-02-13T22:59:03.166Z,5.17
2023-02-13T23:04:03.202Z,5.16
2023-02-13T23:09:02.924Z,4.42
2023-02-13T23:14:03.073Z,4.79
2023-02-13T23:19:02.944Z,3.88
2023-02-13T23:24:03.288Z,3.97
2023-02-13T23:29:02.698Z,4.08
2023-02-13T23:34:02.606Z,4.01
2023-02-13T23:39:02.755Z,4.25
2023-02-13T23:44:05.593Z,3.54
2023-02-13T23:49:02.520Z,3.09
2023-02-13T23:54:02.483Z,3.53
